Time;durP1;ratioP1;P1;durP2;ratioP2;P2;SDS_P1;SDS_P2;PMS_P1;PMS_P2;Temp;Humidity;BMP_temperature;BMP_pressure;BME280_temperature;BME280_humidity;BME280_pressure;Samples;Min_cycle;Max_cycle;Signal;HPM_P1;HPM_P2
2021/03/30 00:00:53;;;;;;;9.50;6.40;;;;;;;;;;5096978;28;21011;-60
2021/03/30 00:03:20;;;;;;;7.73;6.07;;;;;;;;;;5096105;28;20965;-60
2021/03/30 00:05:47;;;;;;;9.70;5.73;;;;;;;;;;5097579;28;20798;-61
2021/03/30 00:08:14;;;;;;;8.60;6.30;;;;;;;;;;5099996;28;20510;-60
2021/03/30 00:10:43;;;;;;;6.90;6.10;;;;;;;;;;5096082;28;20522;-60
2021/03/30 00:13:10;;;;;;;11.20;6.47;;;;;;;;;;5095703;28;20791;-61
2021/03/30 00:15:37;;;;;;;10.93;7.10;;;;;;;;;;5096518;28;20490;-61
2021/03/30 00:18:04;;;;;;;9.68;5.80;;;;;;;;;;5094470;28;20438;-61
2021/03/30 00:20:30;;;;;;;12.07;6.80;;;;;;;;;;5097053;28;20688;-60
2021/03/30 00:22:58;;;;;;;8.63;6.60;;;;;;;;;;5101689;28;20202;-61
2021/03/30 00:25:25;;;;;;;10.02;6.50;;;;;;;;;;5103637;28;20846;-61
2021/03/30 00:27:52;;;;;;;8.60;6.63;;;;;;;;;;5101293;28;20215;-61
2021/03/30 00:30:19;;;;;;;6.20;5.60;;;;;;;;;;5101559;28;20442;-60
2021/03/30 00:32:45;;;;;;;6.95;5.80;;;;;;;;;;5103251;28;20453;-61
2021/03/30 00:35:12;;;;;;;7.18;6.10;;;;;;;;;;5100767;28;20217;-61
2021/03/30 00:37:39;;;;;;;9.93;5.90;;;;;;;;;;5098804;28;20270;-61
2021/03/30 00:40:08;;;;;;;9.82;6.55;;;;;;;;;;5099015;28;20204;-60
2021/03/30 00:42:35;;;;;;;8.40;6.00;;;;;;;;;;5098153;28;20201;-61
2021/03/30 00:45:02;;;;;;;6.53;5.83;;;;;;;;;;5097988;28;20515;-61
2021/03/30 00:47:29;;;;;;;7.77;6.40;;;;;;;;;;5098034;28;20853;-61
2021/03/30 00:49:56;;;;;;;9.20;6.07;;;;;;;;;;5098096;28;20447;-61
2021/03/30 00:52:24;;;;;;;6.10;5.37;;;;;;;;;;5097724;28;20451;-61
2021/03/30 00:54:51;;;;;;;7.90;5.70;;;;;;;;;;5097343;28;20464;-61
2021/03/30 00:57:19;;;;;;;6.70;6.00;;;;;;;;;;5097341;28;20204;-61
2021/03/30 00:59:46;;;;;;;7.70;5.75;;;;;;;;;;5097298;28;20200;-61
2021/03/30 01:02:13;;;;;;;9.80;5.93;;;;;;;;;;5097093;28;20210;-61
2021/03/30 01:04:40;;;;;;;9.63;7.00;;;;;;;;;;5098544;28;20240;-60
2021/03/30 01:07:07;;;;;;;10.43;6.00;;;;;;;;;;5098036;28;20215;-61
2021/03/30 01:09:37;;;;;;;8.43;5.80;;;;;;;;;;5097596;28;20636;-61
2021/03/30 01:12:20;;;;;;;7.85;5.72;;;;;;;;;;5097461;28;20446;-61
2021/03/30 01:14:58;;;;;;;7.35;5.20;;;;;;;;;;5096568;28;20705;-60
2021/03/30 01:17:28;;;;;;;13.13;5.97;;;;;;;;;;5096996;28;20188;-61
2021/03/30 01:20:19;;;;;;;8.60;6.25;;;;;;;;;;5096433;28;20190;-61
2021/03/30 01:23:05;;;;;;;6.38;5.70;;;;;;;;;;5097043;28;20176;-61
2021/03/30 01:25:32;;;;;;;8.57;5.65;;;;;;;;;;5096873;28;20360;-61
2021/03/30 01:28:02;;;;;;;8.93;6.22;;;;;;;;;;5096434;28;20261;-61
2021/03/30 01:30:31;;;;;;;6.40;5.57;;;;;;;;;;5097003;28;20304;-62
2021/03/30 01:33:00;;;;;;;9.52;6.10;;;;;;;;;;5097777;28;20207;-61
2021/03/30 01:35:28;;;;;;;10.40;6.20;;;;;;;;;;5110211;28;20220;-61
2021/03/30 01:37:56;;;;;;;7.82;6.50;;;;;;;;;;5096983;28;20664;-61
2021/03/30 01:40:25;;;;;;;8.43;6.03;;;;;;;;;;5097123;28;20203;-61
2021/03/30 01:42:53;;;;;;;8.45;5.38;;;;;;;;;;5096964;28;20504;-61
2021/03/30 01:45:23;;;;;;;7.40;6.07;;;;;;;;;;5096803;28;20326;-62
2021/03/30 01:47:53;;;;;;;8.57;6.00;;;;;;;;;;5096963;28;20601;-61
2021/03/30 01:50:20;;;;;;;7.45;5.85;;;;;;;;;;5096498;28;20202;-60
2021/03/30 01:52:48;;;;;;;6.60;5.18;;;;;;;;;;5096131;28;20665;-61
2021/03/30 01:55:15;;;;;;;6.50;5.50;;;;;;;;;;5096238;28;20224;-61
2021/03/30 01:57:45;;;;;;;7.85;6.28;;;;;;;;;;5096667;28;20660;-62
2021/03/30 02:00:13;;;;;;;7.57;5.68;;;;;;;;;;5096271;28;20206;-61
2021/03/30 02:02:42;;;;;;;7.10;5.60;;;;;;;;;;5096284;28;20330;-60
2021/03/30 02:05:10;;;;;;;9.52;6.35;;;;;;;;;;5096700;28;20216;-61
2021/03/30 02:07:38;;;;;;;6.75;5.82;;;;;;;;;;5096560;28;20204;-61
2021/03/30 02:10:12;;;;;;;8.00;6.10;;;;;;;;;;5095769;28;20726;-61
2021/03/30 02:12:43;;;;;;;7.97;6.55;;;;;;;;;;5096579;28;20189;-61
2021/03/30 02:15:11;;;;;;;6.45;5.82;;;;;;;;;;5095748;28;20273;-61
2021/03/30 02:17:40;;;;;;;8.35;5.85;;;;;;;;;;5095546;28;20609;-61
2021/03/30 02:20:10;;;;;;;9.68;7.50;;;;;;;;;;5095367;28;20200;-61
2021/03/30 02:22:44;;;;;;;8.15;6.05;;;;;;;;;;5095363;28;20234;-60
2021/03/30 02:25:11;;;;;;;8.27;5.63;;;;;;;;;;5095319;28;20235;-61
2021/03/30 02:27:40;;;;;;;11.05;7.03;;;;;;;;;;5095325;28;20227;-61
2021/03/30 02:30:09;;;;;;;10.57;6.38;;;;;;;;;;5095283;28;20354;-61
2021/03/30 02:32:35;;;;;;;7.95;6.22;;;;;;;;;;5095486;28;20230;-60
2021/03/30 02:35:05;;;;;;;7.40;6.57;;;;;;;;;;5095624;28;20253;-60
2021/03/30 02:37:33;;;;;;;7.80;6.85;;;;;;;;;;5095761;28;20691;-60
2021/03/30 02:40:02;;;;;;;8.55;6.72;;;;;;;;;;5095324;28;20204;-62
2021/03/30 02:42:29;;;;;;;9.40;6.38;;;;;;;;;;5098076;28;20287;-61
2021/03/30 02:44:56;;;;;;;8.57;6.47;;;;;;;;;;5097142;28;20216;-60
2021/03/30 02:47:23;;;;;;;12.15;6.93;;;;;;;;;;5094335;28;20200;-61
2021/03/30 02:49:52;;;;;;;8.25;6.18;;;;;;;;;;5096374;28;20227;-60
2021/03/30 02:52:19;;;;;;;8.70;6.03;;;;;;;;;;5095234;28;20200;-61
2021/03/30 02:54:46;;;;;;;9.75;7.07;;;;;;;;;;5094655;28;20731;-60
2021/03/30 02:57:14;;;;;;;7.20;6.40;;;;;;;;;;5095043;28;20196;-60
2021/03/30 02:59:41;;;;;;;9.50;6.47;;;;;;;;;;5094980;28;20201;-60
2021/03/30 03:02:08;;;;;;;9.35;6.80;;;;;;;;;;5094888;28;20200;-60
2021/03/30 03:04:35;;;;;;;9.00;6.20;;;;;;;;;;5094427;28;20640;-60
2021/03/30 03:07:03;;;;;;;6.93;6.22;;;;;;;;;;5094973;28;20207;-61
2021/03/30 03:09:30;;;;;;;8.15;6.30;;;;;;;;;;5094546;28;20216;-61
2021/03/30 03:11:57;;;;;;;7.50;6.60;;;;;;;;;;5094239;28;20612;-61
2021/03/30 03:14:26;;;;;;;11.95;7.15;;;;;;;;;;5094613;28;20269;-60
2021/03/30 03:16:53;;;;;;;8.38;6.90;;;;;;;;;;5094329;28;20204;-60
2021/03/30 03:19:20;;;;;;;9.02;6.95;;;;;;;;;;5094155;28;20664;-60
2021/03/30 03:21:49;;;;;;;9.68;6.75;;;;;;;;;;5094905;28;20211;-61
2021/03/30 03:24:16;;;;;;;10.10;6.93;;;;;;;;;;5106601;28;20224;-61
2021/03/30 03:26:43;;;;;;;10.43;7.57;;;;;;;;;;5095491;28;20325;-62
2021/03/30 03:29:13;;;;;;;9.95;7.15;;;;;;;;;;5094025;28;20214;-61
2021/03/30 03:31:42;;;;;;;10.48;7.28;;;;;;;;;;5094511;28;20196;-61
2021/03/30 03:34:09;;;;;;;8.18;7.38;;;;;;;;;;5094255;28;20224;-61
2021/03/30 03:36:37;;;;;;;14.82;6.97;;;;;;;;;;5094411;28;20576;-60
2021/03/30 03:39:05;;;;;;;9.25;6.88;;;;;;;;;;5093923;28;20203;-60
2021/03/30 03:41:32;;;;;;;7.25;6.38;;;;;;;;;;5093747;28;20221;-61
2021/03/30 03:43:59;;;;;;;11.30;7.60;;;;;;;;;;5093959;28;20249;-60
2021/03/30 03:46:26;;;;;;;9.30;7.03;;;;;;;;;;5094220;28;20203;-60
2021/03/30 03:48:53;;;;;;;9.85;7.25;;;;;;;;;;5093814;28;20216;-61
2021/03/30 03:51:21;;;;;;;8.00;6.97;;;;;;;;;;5094291;28;20574;-61
2021/03/30 03:53:49;;;;;;;10.85;6.70;;;;;;;;;;5093424;28;20219;-61
2021/03/30 03:56:17;;;;;;;10.45;7.88;;;;;;;;;;5093926;28;20200;-61
2021/03/30 03:58:47;;;;;;;9.68;7.20;;;;;;;;;;5095197;28;20262;-60
2021/03/30 04:01:14;;;;;;;10.23;8.05;;;;;;;;;;5095598;28;20200;-60
2021/03/30 04:03:48;;;;;;;13.93;7.30;;;;;;;;;;5094172;28;20212;-61
2021/03/30 04:07:56;;;;;;;8.63;7.80;;;;;;;;;;5112822;27;20539;-59
2021/03/30 04:10:24;;;;;;;14.63;7.85;;;;;;;;;;5112202;28;20199;-61
2021/03/30 04:12:52;;;;;;;11.50;8.00;;;;;;;;;;5111981;28;20200;-60
2021/03/30 04:15:21;;;;;;;10.85;8.10;;;;;;;;;;5111449;28;20231;-59
2021/03/30 04:17:48;;;;;;;10.55;8.07;;;;;;;;;;5111720;28;20200;-61
2021/03/30 04:20:15;;;;;;;13.52;8.73;;;;;;;;;;5111607;28;20205;-60
2021/03/30 04:22:44;;;;;;;9.48;7.65;;;;;;;;;;5111358;28;20200;-60
2021/03/30 04:25:12;;;;;;;17.10;8.18;;;;;;;;;;5111267;28;20220;-59
2021/03/30 04:27:39;;;;;;;9.85;7.03;;;;;;;;;;5110981;28;20232;-60
2021/03/30 04:30:07;;;;;;;12.38;7.88;;;;;;;;;;5111541;28;20199;-62
2021/03/30 04:32:34;;;;;;;11.40;7.60;;;;;;;;;;5111995;28;20221;-61
2021/03/30 04:35:01;;;;;;;11.32;7.30;;;;;;;;;;5111137;28;20629;-60
2021/03/30 04:37:27;;;;;;;8.88;7.10;;;;;;;;;;5111964;28;20218;-60
2021/03/30 04:39:54;;;;;;;10.20;7.80;;;;;;;;;;5112277;28;20202;-59
2021/03/30 04:42:22;;;;;;;12.05;7.55;;;;;;;;;;5111437;28;20247;-61
2021/03/30 04:44:48;;;;;;;9.80;7.50;;;;;;;;;;5110989;28;20220;-60
2021/03/30 04:47:15;;;;;;;12.88;8.40;;;;;;;;;;5110833;28;20215;-60
2021/03/30 04:49:42;;;;;;;8.30;7.45;;;;;;;;;;5110729;28;20201;-61
2021/03/30 04:52:10;;;;;;;9.27;8.35;;;;;;;;;;5111229;28;20203;-60
2021/03/30 04:54:37;;;;;;;10.05;8.30;;;;;;;;;;5110506;28;20224;-60
2021/03/30 04:57:04;;;;;;;12.57;8.68;;;;;;;;;;5110599;28;20208;-60
2021/03/30 04:59:31;;;;;;;11.63;9.35;;;;;;;;;;5110349;28;20604;-61
2021/03/30 05:01:58;;;;;;;9.35;8.23;;;;;;;;;;5110088;28;20580;-61
2021/03/30 05:04:25;;;;;;;12.43;8.20;;;;;;;;;;5109688;28;20221;-61
2021/03/30 05:06:52;;;;;;;8.20;7.35;;;;;;;;;;5109872;28;20289;-60
2021/03/30 05:09:18;;;;;;;10.38;7.53;;;;;;;;;;5110576;28;20260;-60
2021/03/30 05:11:45;;;;;;;10.48;7.90;;;;;;;;;;5110014;28;20202;-60
2021/03/30 05:14:12;;;;;;;13.80;8.70;;;;;;;;;;5110242;28;20232;-60
2021/03/30 05:16:40;;;;;;;14.13;8.05;;;;;;;;;;5111471;28;20200;-61
2021/03/30 05:19:06;;;;;;;14.90;9.13;;;;;;;;;;5109492;28;20188;-61
2021/03/30 05:21:33;;;;;;;14.02;9.30;;;;;;;;;;5101972;28;20600;-61
2021/03/30 05:24:00;;;;;;;9.57;8.57;;;;;;;;;;5097292;28;20636;-61
2021/03/30 05:26:27;;;;;;;11.95;8.60;;;;;;;;;;5096438;28;20315;-61
2021/03/30 05:28:54;;;;;;;12.13;9.35;;;;;;;;;;5096644;28;20222;-61
2021/03/30 05:31:20;;;;;;;13.70;9.38;;;;;;;;;;5096915;28;20200;-60
2021/03/30 05:33:48;;;;;;;11.13;8.27;;;;;;;;;;5096957;28;20205;-59
2021/03/30 05:36:15;;;;;;;18.00;9.27;;;;;;;;;;5100570;28;20192;-60
2021/03/30 05:38:42;;;;;;;10.45;8.18;;;;;;;;;;5102031;28;20205;-62
2021/03/30 05:41:09;;;;;;;13.40;9.50;;;;;;;;;;5100452;28;20218;-60
2021/03/30 05:43:36;;;;;;;13.27;9.80;;;;;;;;;;5100311;28;20206;-60
2021/03/30 05:46:03;;;;;;;11.82;9.15;;;;;;;;;;5100881;28;20232;-60
2021/03/30 05:48:31;;;;;;;11.00;8.57;;;;;;;;;;5096576;28;20226;-60
2021/03/30 05:50:58;;;;;;;10.32;9.05;;;;;;;;;;5096023;28;20200;-60
2021/03/30 05:53:26;;;;;;;14.27;9.10;;;;;;;;;;5095599;28;20670;-60
2021/03/30 05:55:58;;;;;;;11.80;8.60;;;;;;;;;;5095712;28;20218;-61
2021/03/30 05:58:26;;;;;;;10.25;8.13;;;;;;;;;;5095799;28;20556;-61
2021/03/30 06:00:53;;;;;;;13.55;8.88;;;;;;;;;;5095380;28;20209;-61
2021/03/30 06:03:23;;;;;;;10.18;7.60;;;;;;;;;;5095507;28;20202;-60
2021/03/30 06:05:53;;;;;;;12.88;9.52;;;;;;;;;;5095120;28;20241;-60
2021/03/30 06:08:22;;;;;;;11.70;8.07;;;;;;;;;;5095817;28;20187;-61
2021/03/30 06:10:51;;;;;;;13.10;9.10;;;;;;;;;;5095365;28;20562;-61
2021/03/30 06:13:38;;;;;;;13.53;8.87;;;;;;;;;;5095208;28;20498;-61
2021/03/30 06:16:19;;;;;;;13.40;9.37;;;;;;;;;;5095276;28;20452;-60
2021/03/30 06:18:46;;;;;;;11.93;8.87;;;;;;;;;;5096438;28;20450;-60
2021/03/30 06:21:15;;;;;;;12.27;7.93;;;;;;;;;;5096171;28;20506;-61
2021/03/30 06:23:43;;;;;;;12.67;8.87;;;;;;;;;;5096029;28;20473;-60
2021/03/30 06:26:16;;;;;;;12.47;9.50;;;;;;;;;;5095904;28;20478;-60
2021/03/30 06:28:43;;;;;;;10.10;8.47;;;;;;;;;;5097051;28;20957;-60
2021/03/30 06:31:11;;;;;;;13.20;9.57;;;;;;;;;;5102678;28;20445;-61
2021/03/30 06:33:45;;;;;;;12.20;9.90;;;;;;;;;;5101228;28;20524;-61
2021/03/30 06:36:12;;;;;;;12.50;9.37;;;;;;;;;;5096995;28;20421;-59
2021/03/30 06:38:54;;;;;;;13.00;8.90;;;;;;;;;;5095292;28;20847;-60
2021/03/30 06:41:35;;;;;;;11.20;9.70;;;;;;;;;;5095808;28;20445;-61
2021/03/30 06:46:51;;;;;;;14.10;9.20;;;;;;;;;;5094624;28;21014;-60
2021/03/30 06:49:17;;;;;;;11.60;9.70;;;;;;;;;;5094596;28;20942;-61
2021/03/30 06:51:44;;;;;;;13.87;9.90;;;;;;;;;;5095277;28;20547;-61
2021/03/30 06:54:12;;;;;;;12.53;9.77;;;;;;;;;;5094417;28;20477;-61
2021/03/30 06:56:45;;;;;;;11.47;9.30;;;;;;;;;;5095038;28;20816;-60
2021/03/30 06:59:12;;;;;;;9.63;8.37;;;;;;;;;;5094784;28;20446;-60
2021/03/30 07:01:39;;;;;;;13.23;9.20;;;;;;;;;;5094115;28;21075;-60
2021/03/30 07:04:07;;;;;;;13.07;10.10;;;;;;;;;;5094234;28;20470;-61
2021/03/30 07:06:35;;;;;;;14.07;9.80;;;;;;;;;;5094222;28;20580;-61
2021/03/30 07:09:02;;;;;;;15.50;9.97;;;;;;;;;;5094711;28;20519;-61
2021/03/30 07:11:32;;;;;;;11.90;9.07;;;;;;;;;;5094008;28;20438;-61
2021/03/30 07:13:59;;;;;;;12.20;10.30;;;;;;;;;;5094269;28;20883;-60
2021/03/30 07:16:27;;;;;;;13.73;9.80;;;;;;;;;;5094078;28;20537;-60
2021/03/30 07:18:56;;;;;;;16.60;10.80;;;;;;;;;;5094349;28;20924;-59
2021/03/30 07:21:24;;;;;;;19.20;10.53;;;;;;;;;;5094184;28;20438;-58
2021/03/30 07:23:53;;;;;;;16.53;9.67;;;;;;;;;;5093998;28;20553;-61
2021/03/30 07:26:21;;;;;;;17.73;10.07;;;;;;;;;;5094262;28;20478;-60
2021/03/30 07:28:50;;;;;;;12.57;9.93;;;;;;;;;;5093601;28;20453;-61
2021/03/30 07:31:20;;;;;;;13.10;10.70;;;;;;;;;;5093888;28;20442;-60
2021/03/30 07:33:49;;;;;;;12.70;9.77;;;;;;;;;;5093809;28;20457;-60
2021/03/30 07:36:17;;;;;;;15.63;9.60;;;;;;;;;;5093814;28;20442;-61
2021/03/30 07:38:46;;;;;;;15.17;10.07;;;;;;;;;;5093939;28;20449;-61
2021/03/30 07:41:13;;;;;;;15.50;10.80;;;;;;;;;;5093199;28;20948;-61
2021/03/30 07:43:40;;;;;;;14.93;10.23;;;;;;;;;;5093509;28;20450;-61
2021/03/30 07:46:08;;;;;;;13.77;10.17;;;;;;;;;;5094504;28;20501;-61
2021/03/30 07:48:36;;;;;;;15.80;11.03;;;;;;;;;;5094440;28;20434;-59
2021/03/30 07:51:04;;;;;;;16.60;10.73;;;;;;;;;;5094410;28;20454;-61
2021/03/30 07:53:38;;;;;;;12.67;9.33;;;;;;;;;;5094023;28;20977;-61
2021/03/30 07:56:05;;;;;;;13.30;10.20;;;;;;;;;;5094280;28;20553;-61
2021/03/30 07:58:39;;;;;;;17.53;10.80;;;;;;;;;;5098741;28;20445;-62
2021/03/30 08:01:06;;;;;;;14.87;10.53;;;;;;;;;;5094008;28;20453;-61
2021/03/30 08:03:34;;;;;;;14.23;10.83;;;;;;;;;;5093298;28;20934;-61
2021/03/30 08:06:08;;;;;;;15.07;11.50;;;;;;;;;;5092818;28;20535;-60
2021/03/30 08:08:45;;;;;;;15.70;10.23;;;;;;;;;;5093511;28;20426;-61
2021/03/30 08:11:12;;;;;;;12.37;10.00;;;;;;;;;;5093158;28;20427;-61
2021/03/30 08:13:49;;;;;;;14.50;9.87;;;;;;;;;;5093275;28;20843;-60
2021/03/30 08:16:16;;;;;;;18.00;11.70;;;;;;;;;;5093664;28;20519;-61
2021/03/30 08:18:45;;;;;;;17.37;11.13;;;;;;;;;;5093388;28;20451;-61
2021/03/30 08:21:12;;;;;;;17.67;10.03;;;;;;;;;;5094483;28;20454;-62
2021/03/30 08:23:58;;;;;;;14.13;10.35;;;;;;;;;;5094401;28;20900;-62
2021/03/30 08:26:26;;;;;;;16.50;10.70;;;;;;;;;;5093345;28;20219;-63
2021/03/30 08:28:55;;;;;;;17.03;11.47;;;;;;;;;;5093541;28;20449;-61
2021/03/30 08:31:24;;;;;;;15.00;10.53;;;;;;;;;;5092043;28;20855;-61
2021/03/30 08:33:52;;;;;;;17.23;10.13;;;;;;;;;;5092755;28;20442;-61
2021/03/30 08:36:21;;;;;;;19.60;10.30;;;;;;;;;;5093585;28;20586;-62
2021/03/30 08:38:48;;;;;;;14.90;8.80;;;;;;;;;;5093326;28;20464;-61
2021/03/30 08:41:30;;;;;;;12.53;7.63;;;;;;;;;;5093958;28;20525;-61
2021/03/30 08:44:13;;;;;;;15.33;7.80;;;;;;;;;;5093297;28;20460;-61
2021/03/30 08:46:41;;;;;;;14.33;9.40;;;;;;;;;;5093056;28;20478;-62
2021/03/30 08:49:23;;;;;;;12.00;9.40;;;;;;;;;;5095367;28;20450;-61
2021/03/30 08:51:51;;;;;;;13.10;8.40;;;;;;;;;;5095129;28;20898;-61
2021/03/30 08:54:19;;;;;;;18.80;9.80;;;;;;;;;;5097497;28;20466;-61
2021/03/30 08:56:46;;;;;;;13.50;8.17;;;;;;;;;;5098186;28;20919;-61
2021/03/30 08:59:15;;;;;;;15.13;8.50;;;;;;;;;;5097289;28;20811;-61
2021/03/30 09:01:43;;;;;;;15.77;9.17;;;;;;;;;;5097315;28;20537;-61
2021/03/30 09:04:10;;;;;;;15.70;9.60;;;;;;;;;;5096518;28;20515;-62
2021/03/30 09:06:40;;;;;;;18.33;10.00;;;;;;;;;;5096263;28;20481;-63
2021/03/30 09:09:20;;;;;;;10.43;7.70;;;;;;;;;;5098519;28;20450;-60
2021/03/30 09:11:47;;;;;;;13.83;8.80;;;;;;;;;;5102724;28;20488;-61
2021/03/30 09:14:17;;;;;;;14.20;8.90;;;;;;;;;;5101990;28;20941;-59
2021/03/30 09:16:45;;;;;;;15.97;9.40;;;;;;;;;;5099219;28;20533;-62
2021/03/30 09:19:31;;;;;;;13.47;9.40;;;;;;;;;;5101150;28;20450;-61
2021/03/30 09:22:00;;;;;;;12.77;9.10;;;;;;;;;;5102800;28;20426;-60
2021/03/30 09:24:38;;;;;;;12.87;8.13;;;;;;;;;;5104307;28;21046;-62
2021/03/30 09:27:05;;;;;;;12.67;8.87;;;;;;;;;;5102163;28;20877;-61
2021/03/30 09:29:35;;;;;;;16.83;8.87;;;;;;;;;;5104862;28;20450;-62
2021/03/30 09:32:02;;;;;;;10.70;7.90;;;;;;;;;;5103067;28;20453;-61
2021/03/30 09:34:29;;;;;;;12.67;8.60;;;;;;;;;;5100700;28;20461;-61
2021/03/30 09:36:58;;;;;;;10.97;7.87;;;;;;;;;;5099561;28;20430;-62
2021/03/30 09:39:26;;;;;;;12.70;8.63;;;;;;;;;;5098737;28;20454;-61
2021/03/30 09:41:54;;;;;;;12.37;7.87;;;;;;;;;;5097739;28;20450;-62
2021/03/30 09:44:21;;;;;;;12.27;8.37;;;;;;;;;;5096604;28;20517;-62
2021/03/30 09:46:50;;;;;;;14.07;8.00;;;;;;;;;;5099764;28;20474;-62
2021/03/30 09:49:19;;;;;;;12.00;7.57;;;;;;;;;;5102577;28;20442;-61
2021/03/30 09:51:46;;;;;;;16.20;8.07;;;;;;;;;;5102154;28;20469;-60
2021/03/30 09:54:19;;;;;;;14.27;8.30;;;;;;;;;;5102891;28;20992;-61
2021/03/30 09:56:47;;;;;;;13.17;8.13;;;;;;;;;;5103183;28;20446;-62
2021/03/30 09:59:17;;;;;;;14.33;9.13;;;;;;;;;;5106564;28;20487;-62
2021/03/30 10:01:44;;;;;;;17.40;8.60;;;;;;;;;;5107301;28;20907;-65
2021/03/30 10:04:11;;;;;;;13.83;8.90;;;;;;;;;;5102456;28;20465;-62
2021/03/30 10:06:38;;;;;;;15.30;8.40;;;;;;;;;;5095956;28;20478;-61
2021/03/30 10:09:05;;;;;;;14.27;9.07;;;;;;;;;;5095848;28;20446;-61
2021/03/30 10:11:32;;;;;;;16.00;9.10;;;;;;;;;;5095657;28;20533;-62
2021/03/30 10:14:13;;;;;;;17.10;8.33;;;;;;;;;;5095015;28;20442;-61
2021/03/30 10:16:41;;;;;;;11.30;7.93;;;;;;;;;;5095345;28;20851;-62
2021/03/30 10:19:08;;;;;;;14.00;9.00;;;;;;;;;;5094775;28;20973;-61
2021/03/30 10:21:37;;;;;;;19.23;11.03;;;;;;;;;;5094567;28;20927;-62
2021/03/30 10:24:10;;;;;;;16.83;9.90;;;;;;;;;;5094881;28;20985;-61
2021/03/30 10:26:37;;;;;;;18.10;10.10;;;;;;;;;;5095069;28;20477;-62
2021/03/30 10:29:05;;;;;;;15.50;9.23;;;;;;;;;;5095503;28;20442;-61
2021/03/30 10:31:36;;;;;;;12.90;8.87;;;;;;;;;;5097567;28;20453;-62
2021/03/30 10:34:03;;;;;;;13.57;8.03;;;;;;;;;;5094601;28;20561;-61
2021/03/30 10:36:30;;;;;;;14.30;8.30;;;;;;;;;;5094326;28;20434;-60
2021/03/30 10:39:07;;;;;;;14.90;9.73;;;;;;;;;;5095069;28;20445;-62
2021/03/30 10:41:35;;;;;;;13.57;9.60;;;;;;;;;;5094698;28;20445;-63
2021/03/30 10:44:02;;;;;;;12.87;8.50;;;;;;;;;;5094625;28;20462;-62
2021/03/30 10:46:29;;;;;;;15.17;9.47;;;;;;;;;;5093939;28;20523;-62
2021/03/30 10:49:00;;;;;;;13.43;9.60;;;;;;;;;;5094286;28;20447;-62
2021/03/30 10:51:27;;;;;;;16.93;10.73;;;;;;;;;;5094581;28;20496;-62
2021/03/30 10:53:55;;;;;;;14.23;10.40;;;;;;;;;;5094415;28;20469;-61
2021/03/30 10:56:22;;;;;;;18.63;11.60;;;;;;;;;;5094775;28;20454;-62
2021/03/30 10:58:49;;;;;;;11.80;8.80;;;;;;;;;;5096869;28;20458;-62
2021/03/30 11:01:15;;;;;;;13.00;8.50;;;;;;;;;;5096265;28;20523;-62
2021/03/30 11:03:42;;;;;;;14.77;9.70;;;;;;;;;;5094659;28;20933;-62
2021/03/30 11:06:09;;;;;;;14.80;9.83;;;;;;;;;;5094860;28;20565;-62
2021/03/30 11:08:37;;;;;;;15.83;9.30;;;;;;;;;;5095277;28;20448;-61
2021/03/30 11:11:04;;;;;;;16.23;10.30;;;;;;;;;;5095030;28;20869;-63
2021/03/30 11:13:30;;;;;;;13.17;9.90;;;;;;;;;;5094180;28;20446;-63
2021/03/30 11:15:57;;;;;;;11.93;8.80;;;;;;;;;;5093592;28;20483;-63
2021/03/30 11:18:24;;;;;;;14.47;9.10;;;;;;;;;;5094703;28;20438;-62
2021/03/30 11:20:51;;;;;;;12.23;9.07;;;;;;;;;;5095052;28;20460;-62
2021/03/30 11:23:17;;;;;;;15.40;10.10;;;;;;;;;;5093915;28;20442;-61
2021/03/30 11:25:45;;;;;;;14.93;8.30;;;;;;;;;;5093463;28;20458;-62
2021/03/30 11:28:13;;;;;;;14.00;9.20;;;;;;;;;;5094062;28;20474;-62
2021/03/30 11:30:43;;;;;;;15.03;9.67;;;;;;;;;;5093725;28;20442;-63
2021/03/30 11:33:12;;;;;;;18.37;10.83;;;;;;;;;;5093381;28;20457;-62
2021/03/30 11:35:47;;;;;;;14.37;9.17;;;;;;;;;;5093463;28;20520;-62
2021/03/30 11:38:14;;;;;;;26.10;9.90;;;;;;;;;;5093598;28;20440;-63
2021/03/30 11:40:40;;;;;;;15.90;9.27;;;;;;;;;;5093786;28;20438;-62
2021/03/30 11:43:08;;;;;;;14.50;9.30;;;;;;;;;;5093783;28;20450;-62
2021/03/30 11:45:35;;;;;;;26.20;8.73;;;;;;;;;;5096718;28;20473;-62
2021/03/30 11:48:02;;;;;;;14.37;9.97;;;;;;;;;;5095174;28;20478;-63
2021/03/30 11:50:29;;;;;;;12.87;8.30;;;;;;;;;;5093323;28;20452;-63
2021/03/30 11:52:55;;;;;;;15.60;8.87;;;;;;;;;;5093537;28;20521;-62
2021/03/30 11:55:22;;;;;;;17.50;8.50;;;;;;;;;;5092738;28;20462;-63
2021/03/30 11:57:49;;;;;;;16.10;9.50;;;;;;;;;;5093131;28;20438;-63
2021/03/30 12:00:19;;;;;;;13.90;8.07;;;;;;;;;;5093516;28;20446;-61
2021/03/30 12:02:45;;;;;;;12.23;8.40;;;;;;;;;;5093587;28;20461;-63
2021/03/30 12:05:12;;;;;;;13.80;8.70;;;;;;;;;;5092719;28;20953;-60
2021/03/30 12:07:39;;;;;;;15.87;9.17;;;;;;;;;;5092649;28;20477;-62
2021/03/30 12:10:06;;;;;;;12.87;8.70;;;;;;;;;;5093352;28;20442;-63
2021/03/30 12:12:33;;;;;;;15.00;9.27;;;;;;;;;;5092651;28;20794;-62
2021/03/30 12:15:00;;;;;;;12.20;8.47;;;;;;;;;;5093172;28;20462;-63
2021/03/30 12:17:28;;;;;;;10.30;6.97;;;;;;;;;;5093982;28;20469;-62
2021/03/30 12:19:54;;;;;;;11.73;8.23;;;;;;;;;;5092800;28;20499;-61
2021/03/30 12:22:21;;;;;;;13.50;8.40;;;;;;;;;;5092829;28;20450;-62
2021/03/30 12:24:48;;;;;;;14.63;8.90;;;;;;;;;;5092843;28;20473;-63
2021/03/30 12:27:15;;;;;;;11.70;7.77;;;;;;;;;;5093611;28;20474;-62
2021/03/30 12:29:42;;;;;;;11.27;8.23;;;;;;;;;;5096837;28;20472;-63
2021/03/30 12:32:10;;;;;;;12.17;7.50;;;;;;;;;;5097215;28;20801;-61
2021/03/30 12:34:38;;;;;;;12.13;6.40;;;;;;;;;;5097135;28;20476;-61
2021/03/30 12:37:05;;;;;;;11.60;5.60;;;;;;;;;;5097153;28;20442;-62
2021/03/30 12:39:32;;;;;;;7.20;4.70;;;;;;;;;;5097285;28;20595;-62
2021/03/30 12:41:59;;;;;;;8.23;5.13;;;;;;;;;;5097165;28;20449;-62
2021/03/30 12:44:26;;;;;;;10.67;5.07;;;;;;;;;;5096685;28;20474;-62
2021/03/30 12:46:53;;;;;;;8.37;4.80;;;;;;;;;;5096598;28;20477;-62
2021/03/30 12:49:21;;;;;;;6.00;3.63;;;;;;;;;;5097197;28;20816;-62
2021/03/30 12:51:49;;;;;;;8.20;5.20;;;;;;;;;;5096406;28;20573;-62
2021/03/30 12:54:16;;;;;;;9.77;5.13;;;;;;;;;;5097444;28;20580;-62
2021/03/30 12:56:43;;;;;;;7.90;5.03;;;;;;;;;;5096864;28;20487;-62
2021/03/30 12:59:10;;;;;;;5.77;4.67;;;;;;;;;;5095903;28;20446;-62
2021/03/30 13:01:36;;;;;;;11.50;5.07;;;;;;;;;;5100661;28;20438;-62
2021/03/30 13:04:03;;;;;;;9.70;5.03;;;;;;;;;;5098659;28;20462;-62
2021/03/30 13:06:30;;;;;;;10.30;6.17;;;;;;;;;;5099432;28;20514;-62
2021/03/30 13:08:58;;;;;;;7.13;5.40;;;;;;;;;;5100472;28;20441;-63
2021/03/30 13:11:24;;;;;;;8.20;5.07;;;;;;;;;;5102780;28;20462;-63
2021/03/30 13:13:51;;;;;;;7.40;5.50;;;;;;;;;;5101774;28;20442;-61
2021/03/30 13:16:18;;;;;;;8.83;6.10;;;;;;;;;;5103646;28;20438;-62
2021/03/30 13:18:45;;;;;;;9.43;5.70;;;;;;;;;;5101743;28;20510;-61
2021/03/30 13:21:12;;;;;;;12.80;7.00;;;;;;;;;;5104379;28;20445;-61
2021/03/30 13:23:39;;;;;;;16.53;6.43;;;;;;;;;;5103298;28;20446;-62
2021/03/30 13:26:07;;;;;;;10.00;6.27;;;;;;;;;;5106054;28;20441;-63
2021/03/30 13:28:33;;;;;;;8.93;5.80;;;;;;;;;;5107865;28;20488;-61
2021/03/30 13:31:00;;;;;;;10.50;6.17;;;;;;;;;;5104415;28;20768;-63
2021/03/30 13:33:27;;;;;;;12.70;6.97;;;;;;;;;;5104729;28;20809;-62
2021/03/30 13:35:53;;;;;;;8.80;7.00;;;;;;;;;;5104898;28;20470;-61
2021/03/30 13:38:20;;;;;;;8.97;6.40;;;;;;;;;;5104382;28;20563;-63
2021/03/30 13:40:47;;;;;;;8.77;6.50;;;;;;;;;;5102486;28;20438;-61
2021/03/30 13:43:15;;;;;;;12.70;7.03;;;;;;;;;;5101935;28;20446;-62
2021/03/30 13:45:41;;;;;;;8.93;6.67;;;;;;;;;;5101287;28;20546;-62
2021/03/30 13:48:09;;;;;;;10.77;6.43;;;;;;;;;;5099875;28;20482;-63
2021/03/30 13:50:36;;;;;;;7.67;4.90;;;;;;;;;;5098926;28;20789;-62
2021/03/30 13:53:03;;;;;;;11.13;6.20;;;;;;;;;;5098945;28;20481;-62
2021/03/30 13:55:30;;;;;;;8.00;4.90;;;;;;;;;;5099855;28;20474;-62
2021/03/30 13:57:57;;;;;;;7.63;4.93;;;;;;;;;;5099082;28;20450;-62
2021/03/30 14:00:25;;;;;;;7.63;4.37;;;;;;;;;;5100204;28;20918;-63
2021/03/30 14:02:52;;;;;;;7.97;5.20;;;;;;;;;;5100463;28;20484;-63
2021/03/30 14:05:19;;;;;;;5.23;3.60;;;;;;;;;;5097875;28;20469;-63
2021/03/30 14:07:45;;;;;;;5.93;4.23;;;;;;;;;;5094925;28;20478;-62
2021/03/30 14:10:17;;;;;;;6.50;4.47;;;;;;;;;;5095300;28;20446;-62
2021/03/30 14:12:52;;;;;;;6.23;4.60;;;;;;;;;;5095502;28;20453;-62
2021/03/30 14:15:28;;;;;;;6.10;3.60;;;;;;;;;;5095607;28;20488;-63
2021/03/30 14:18:04;;;;;;;9.43;3.87;;;;;;;;;;5096062;28;20426;-62
2021/03/30 14:20:32;;;;;;;6.10;3.90;;;;;;;;;;5095949;28;20435;-63
2021/03/30 14:23:05;;;;;;;7.17;4.73;;;;;;;;;;5095314;28;20529;-61
2021/03/30 14:25:35;;;;;;;5.73;4.90;;;;;;;;;;5095252;28;20499;-62
2021/03/30 14:28:01;;;;;;;10.60;4.33;;;;;;;;;;5095133;28;20478;-63
2021/03/30 14:30:28;;;;;;;6.63;4.40;;;;;;;;;;5096563;28;20856;-63
2021/03/30 14:32:56;;;;;;;5.17;3.40;;;;;;;;;;5095465;28;20442;-62
2021/03/30 14:35:24;;;;;;;5.50;3.87;;;;;;;;;;5095984;28;20470;-63
2021/03/30 14:37:52;;;;;;;6.43;4.67;;;;;;;;;;5095288;28;20592;-63
2021/03/30 14:40:24;;;;;;;6.30;4.03;;;;;;;;;;5095921;28;20454;-61
2021/03/30 14:42:55;;;;;;;6.27;3.80;;;;;;;;;;5095222;28;20431;-61
2021/03/30 14:45:47;;;;;;;7.10;4.43;;;;;;;;;;5094720;28;20466;-63